Time,TemperatureF,DewpointF,PressureIn,WindDirection,WindDirectionDegrees,WindSpeedMPH,WindSpeedGustMPH,Humidity,HourlyPrecipIn,Conditions,Clouds,dailyrainin,SoftwareType,DateUTC
2013-04-05 00:02:00,41.0,29.0,-100.00,SW,216,18.0,35.0,63,-99.99,,,-99.99,,2013-04-05 06:02:00,
2013-04-05 00:12:00,41.0,29.0,-100.00,SW,216,18.0,35.0,63,-99.99,,,-99.99,,2013-04-05 06:12:00,
2013-04-05 00:22:00,40.0,28.0,-100.00,SW,218,18.0,31.0,63,-99.99,,,-99.99,,2013-04-05 06:22:00,
2013-04-05 00:32:00,40.0,28.0,-100.00,SW,218,18.0,31.0,63,-99.99,,,-99.99,,2013-04-05 06:32:00,
2013-04-05 00:42:00,40.0,28.0,-100.00,SW,218,18.0,31.0,63,-99.99,,,-99.99,,2013-04-05 06:42:00,
2013-04-05 00:52:00,40.0,28.0,-100.00,SW,214,16.0,30.0,61,-99.99,,,-99.99,,2013-04-05 06:52:00,
2013-04-05 01:02:00,40.0,27.0,-100.00,SSW,207,13.0,25.0,60,-99.99,,,-99.99,,2013-04-05 07:02:00,
2013-04-05 01:12:00,40.0,27.0,-100.00,SSW,207,13.0,25.0,60,-99.99,,,-99.99,,2013-04-05 07:12:00,
2013-04-05 01:22:00,40.0,27.0,-100.00,SSW,208,15.0,29.0,60,-99.99,,,-99.99,,2013-04-05 07:22:00,
2013-04-05 01:32:00,40.0,28.0,-100.00,SW,218,22.0,35.0,61,-99.99,,,-99.99,,2013-04-05 07:32:00,
2013-04-05 01:42:00,40.0,28.0,-100.00,SW,218,22.0,35.0,61,-99.99,,,-99.99,,2013-04-05 07:42:00,
2013-04-05 01:52:00,40.0,28.0,-100.00,SW,217,23.0,37.0,62,-99.99,,,-99.99,,2013-04-05 07:52:00,
2013-04-05 02:02:00,39.0,27.0,-100.00,SSW,212,17.0,29.0,63,-99.99,,,-99.99,,2013-04-05 08:02:00,
2013-04-05 02:12:00,39.0,27.0,-100.00,SSW,212,17.0,29.0,63,-99.99,,,-99.99,,2013-04-05 08:12:00,
2013-04-05 02:22:00,39.0,29.0,-100.00,SSW,211,17.0,28.0,66,-99.99,,,-99.99,,2013-04-05 08:22:00,
2013-04-05 02:32:00,39.0,29.0,-100.00,SSW,213,17.0,29.0,67,-99.99,,,-99.99,,2013-04-05 08:32:00,
2013-04-05 02:42:00,39.0,29.0,-100.00,SSW,213,17.0,29.0,67,-99.99,,,-99.99,,2013-04-05 08:42:00,
2013-04-05 02:52:00,39.0,28.0,-100.00,SW,215,19.0,34.0,65,-99.99,,,-99.99,,2013-04-05 08:52:00,
2013-04-05 03:02:00,39.0,28.0,-100.00,SSW,208,16.0,30.0,64,-99.99,,,-99.99,,2013-04-05 09:02:00,
2013-04-05 03:12:00,39.0,28.0,-100.00,SSW,208,16.0,30.0,64,-99.99,,,-99.99,,2013-04-05 09:12:00,
2013-04-05 03:22:00,39.0,28.0,-100.00,SSW,205,13.0,30.0,64,-99.99,,,-99.99,,2013-04-05 09:22:00,
2013-04-05 03:32:00,39.0,28.0,-100.00,SSW,205,13.0,30.0,64,-99.99,,,-99.99,,2013-04-05 09:32:00,
2013-04-05 03:42:00,39.0,28.0,-100.00,SSW,205,13.0,30.0,64,-99.99,,,-99.99,,2013-04-05 09:42:00,
2013-04-05 03:53:00,39.0,28.0,-100.00,SW,222,14.0,29.0,65,-99.99,,,-99.99,,2013-04-05 09:53:00,
2013-04-05 04:02:00,39.0,29.0,-100.00,SW,222,15.0,22.0,66,-99.99,,,-99.99,,2013-04-05 10:02:00,
2013-04-05 04:12:00,39.0,29.0,-100.00,SW,222,15.0,22.0,66,-99.99,,,-99.99,,2013-04-05 10:12:00,
2013-04-05 04:23:00,39.0,29.0,-100.00,SW,229,21.0,29.0,66,-99.99,,,-99.99,,2013-04-05 10:23:00,
2013-04-05 04:32:00,39.0,29.0,-100.00,SW,231,25.0,40.0,67,-99.99,,,-99.99,,2013-04-05 10:32:00,
2013-04-05 04:42:00,39.0,29.0,-100.00,SW,231,25.0,40.0,67,-99.99,,,-99.99,,2013-04-05 10:42:00,
2013-04-05 04:53:00,37.0,31.0,-100.00,WSW,250,21.0,36.0,78,-99.99,,,-99.99,,2013-04-05 10:53:00,
2013-04-05 05:02:00,36.0,31.0,-100.00,WSW,245,19.0,32.0,83,-99.99,,,-99.99,,2013-04-05 11:02:00,
2013-04-05 05:12:00,36.0,31.0,-100.00,WSW,245,19.0,32.0,83,-99.99,,,-99.99,,2013-04-05 11:12:00,
2013-04-05 05:22:00,34.0,33.0,-100.00,WSW,256,19.0,29.0,97,-99.99,,,-99.99,,2013-04-05 11:22:00,
2013-04-05 05:32:00,32.0,32.0,-100.00,WSW,240,23.0,30.0,100,-99.99,,,-99.99,,2013-04-05 11:32:00,
2013-04-05 05:42:00,32.0,32.0,-100.00,WSW,240,23.0,30.0,100,-99.99,,,-99.99,,2013-04-05 11:42:00,
2013-04-05 05:52:00,32.0,32.0,-100.00,WSW,240,20.0,28.0,100,-99.99,,,-99.99,,2013-04-05 11:52:00,
2013-04-05 06:02:00,34.0,34.0,-100.00,SW,234,26.0,31.0,100,-99.99,,,-99.99,,2013-04-05 12:02:00,
2013-04-05 06:12:00,34.0,34.0,-100.00,SW,234,26.0,31.0,100,-99.99,,,-99.99,,2013-04-05 12:12:00,
2013-04-05 06:22:00,35.0,34.0,-100.00,SW,235,27.0,40.0,97,-99.99,,,-99.99,,2013-04-05 12:22:00,
2013-04-05 06:32:00,35.0,34.0,-100.00,SW,235,27.0,40.0,97,-99.99,,,-99.99,,2013-04-05 12:32:00,
2013-04-05 06:42:00,35.0,34.0,-100.00,SW,235,27.0,40.0,97,-99.99,,,-99.99,,2013-04-05 12:42:00,
2013-04-05 06:52:00,35.0,33.0,-100.00,SSW,193,6.0,17.0,93,-99.99,,,-99.99,,2013-04-05 12:52:00,
2013-04-05 07:02:00,35.0,33.0,-100.00,SSW,197,10.0,25.0,92,-99.99,,,-99.99,,2013-04-05 13:02:00,
2013-04-05 07:12:00,35.0,33.0,-100.00,SSW,197,10.0,25.0,92,-99.99,,,-99.99,,2013-04-05 13:12:00,
2013-04-05 07:22:00,35.0,33.0,-100.00,SW,236,25.0,38.0,92,-99.99,,,-99.99,,2013-04-05 13:22:00,
2013-04-05 07:32:00,35.0,33.0,-100.00,WSW,237,14.0,29.0,92,-99.99,,,-99.99,,2013-04-05 13:32:00,
2013-04-05 07:42:00,35.0,33.0,-100.00,WSW,237,14.0,29.0,92,-99.99,,,-99.99,,2013-04-05 13:42:00,
2013-04-05 07:52:00,34.0,33.0,-100.00,SW,235,19.0,29.0,97,-99.99,,,-99.99,,2013-04-05 13:52:00,
2013-04-05 08:02:00,33.0,33.0,-100.00,WSW,238,17.0,25.0,100,-99.99,,,-99.99,,2013-04-05 14:02:00,
2013-04-05 08:12:00,33.0,33.0,-100.00,WSW,238,17.0,25.0,100,-99.99,,,-99.99,,2013-04-05 14:12:00,
2013-04-05 08:22:00,33.0,33.0,-100.00,WSW,252,10.0,18.0,100,-99.99,,,-99.99,,2013-04-05 14:22:00,
2013-04-05 08:42:00,33.0,33.0,-100.00,WSW,245,10.0,16.0,100,-99.99,,,-99.99,,2013-04-05 14:42:00,
2013-04-05 08:53:00,33.0,33.0,-100.00,WSW,239,10.0,14.0,100,-99.99,,,-99.99,,2013-04-05 14:53:00,
2013-04-05 09:02:00,34.0,34.0,-100.00,WSW,238,7.0,11.0,100,-99.99,,,-99.99,,2013-04-05 15:02:00,
2013-04-05 09:12:00,34.0,34.0,-100.00,WSW,238,7.0,11.0,100,-99.99,,,-99.99,,2013-04-05 15:12:00,
2013-04-05 09:23:00,34.0,34.0,-100.00,South,170,5.0,9.0,100,-99.99,,,-99.99,,2013-04-05 15:23:00,
2013-04-05 09:33:00,34.0,34.0,-100.00,SSE,165,4.0,7.0,100,-99.99,,,-99.99,,2013-04-05 15:33:00,
2013-04-05 09:42:00,34.0,34.0,-100.00,SSE,165,4.0,7.0,100,-99.99,,,-99.99,,2013-04-05 15:42:00,
2013-04-05 09:53:00,34.0,34.0,-100.00,NNW,335,3.0,7.0,100,-99.99,,,-99.99,,2013-04-05 15:53:00,
2013-04-05 10:02:00,33.0,33.0,-100.00,WNW,297,6.0,15.0,100,-99.99,,,-99.99,,2013-04-05 16:02:00,
2013-04-05 10:13:00,33.0,33.0,-100.00,WNW,297,6.0,15.0,100,-99.99,,,-99.99,,2013-04-05 16:13:00,
2013-04-05 10:23:00,32.0,32.0,-100.00,NW,316,11.0,14.0,100,-99.99,,,-99.99,,2013-04-05 16:23:00,
2013-04-05 10:32:00,31.0,31.0,-100.00,NW,317,11.0,16.0,100,-99.99,,,-99.99,,2013-04-05 16:32:00,
2013-04-05 10:42:00,31.0,31.0,-100.00,NW,317,11.0,16.0,100,-99.99,,,-99.99,,2013-04-05 16:42:00,
2013-04-05 10:53:00,30.0,30.0,-100.00,NW,311,14.0,20.0,100,-99.99,,,-99.99,,2013-04-05 16:53:00,
2013-04-05 11:02:00,29.0,29.0,-100.00,NW,321,17.0,23.0,100,-99.99,,,-99.99,,2013-04-05 17:02:00,
2013-04-05 11:12:00,29.0,29.0,-100.00,NW,321,17.0,23.0,100,-99.99,,,-99.99,,2013-04-05 17:12:00,
2013-04-05 11:22:00,29.0,29.0,-100.00,NW,321,16.0,20.0,100,-99.99,,,-99.99,,2013-04-05 17:22:00,
2013-04-05 11:32:00,29.0,29.0,-100.00,NW,318,15.0,20.0,100,-99.99,,,-99.99,,2013-04-05 17:32:00,
2013-04-05 11:45:00,29.0,29.0,-100.00,NW,318,15.0,20.0,100,-99.99,,,-99.99,,2013-04-05 17:45:00,
2013-04-05 11:52:00,29.0,29.0,-100.00,NW,318,14.0,19.0,100,-99.99,,,-99.99,,2013-04-05 17:52:00,
2013-04-05 12:02:00,29.0,29.0,-100.00,NW,325,16.0,22.0,100,-99.99,,,-99.99,,2013-04-05 18:02:00,
2013-04-05 12:12:00,29.0,29.0,-100.00,NW,325,16.0,22.0,100,-99.99,,,-99.99,,2013-04-05 18:12:00,
2013-04-05 12:22:00,29.0,29.0,-100.00,NW,313,18.0,29.0,100,-99.99,,,-99.99,,2013-04-05 18:22:00,
2013-04-05 12:32:00,29.0,29.0,-100.00,NNW,327,17.0,26.0,100,-99.99,,,-99.99,,2013-04-05 18:32:00,
2013-04-05 12:42:00,29.0,29.0,-100.00,NNW,327,17.0,26.0,100,-99.99,,,-99.99,,2013-04-05 18:42:00,
2013-04-05 12:52:00,30.0,30.0,-100.00,NNW,329,8.0,16.0,100,-99.99,,,-99.99,,2013-04-05 18:52:00,
2013-04-05 13:02:00,31.0,31.0,-100.00,NNW,329,7.0,13.0,100,-99.99,,,-99.99,,2013-04-05 19:02:00,
2013-04-05 13:13:00,31.0,31.0,-100.00,NNW,329,7.0,13.0,100,-99.99,,,-99.99,,2013-04-05 19:13:00,
2013-04-05 13:22:00,31.0,31.0,-100.00,North,354,9.0,15.0,100,-99.99,,,-99.99,,2013-04-05 19:22:00,
2013-04-05 13:32:00,32.0,32.0,-100.00,North,358,8.0,12.0,100,-99.99,,,-99.99,,2013-04-05 19:32:00,
2013-04-05 13:42:00,32.0,32.0,-100.00,North,358,8.0,12.0,100,-99.99,,,-99.99,,2013-04-05 19:42:00,
2013-04-05 13:52:00,32.0,32.0,-100.00,North,356,8.0,16.0,100,-99.99,,,-99.99,,2013-04-05 19:52:00,
2013-04-05 14:02:00,33.0,33.0,-100.00,North,353,11.0,15.0,99,-99.99,,,-99.99,,2013-04-05 20:02:00,
2013-04-05 14:11:00,33.0,33.0,-100.00,North,353,11.0,15.0,99,-99.99,,,-99.99,,2013-04-05 20:11:00,
2013-04-05 14:22:00,32.0,32.0,-100.00,NNW,341,11.0,18.0,100,-99.99,,,-99.99,,2013-04-05 20:22:00,
2013-04-05 14:31:00,32.0,32.0,-100.00,NNW,334,13.0,23.0,99,-99.99,,,-99.99,,2013-04-05 20:31:00,
2013-04-05 14:42:00,32.0,32.0,-100.00,NNW,334,13.0,23.0,99,-99.99,,,-99.99,,2013-04-05 20:42:00,
2013-04-05 14:52:00,33.0,31.0,-100.00,NNW,333,16.0,25.0,92,-99.99,,,-99.99,,2013-04-05 20:52:00,
2013-04-05 15:02:00,33.0,31.0,-100.00,NNW,338,11.0,21.0,91,-99.99,,,-99.99,,2013-04-05 21:02:00,
2013-04-05 15:12:00,33.0,31.0,-100.00,NNW,338,11.0,21.0,91,-99.99,,,-99.99,,2013-04-05 21:12:00,
2013-04-05 15:23:00,33.0,30.0,-100.00,NW,313,7.0,16.0,88,-99.99,,,-99.99,,2013-04-05 21:23:00,
2013-04-05 15:30:00,34.0,29.0,-100.00,NW,310,13.0,23.0,82,-99.99,,,-99.99,,2013-04-05 21:30:00,
2013-04-05 15:32:00,34.0,30.0,-100.00,NW,312,11.0,25.0,84,-99.99,,,-99.99,,2013-04-05 21:32:00,
2013-04-05 15:42:00,34.0,30.0,-100.00,NW,312,11.0,25.0,84,-99.99,,,-99.99,,2013-04-05 21:42:00,
2013-04-05 15:54:00,34.0,29.0,-100.00,NW,306,9.0,19.0,81,-99.99,,,-99.99,,2013-04-05 21:54:00,
2013-04-05 16:02:00,34.0,29.0,-100.00,NW,310,13.0,23.0,82,-99.99,,,-99.99,,2013-04-05 22:02:00,
2013-04-05 16:13:00,34.0,29.0,-100.00,NW,310,13.0,23.0,82,-99.99,,,-99.99,,2013-04-05 22:13:00,
2013-04-05 16:22:00,34.0,29.0,-100.00,NW,310,13.0,23.0,82,-99.99,,,-99.99,,2013-04-05 22:22:00,